createdAt,value
2018-03-06T00:00:53.519Z,992.02
2018-03-06T00:01:53.417Z,992.02
2018-03-06T00:02:53.313Z,992.03
2018-03-06T00:03:53.196Z,992.02
2018-03-06T00:04:53.095Z,992.01
2018-03-06T00:05:52.991Z,992.02
2018-03-06T00:06:52.887Z,991.97
2018-03-06T00:07:52.772Z,992.01
2018-03-06T00:08:52.669Z,991.99
2018-03-06T00:09:52.566Z,992.07
2018-03-06T00:10:52.451Z,992.03
2018-03-06T00:11:52.346Z,992.05
2018-03-06T00:12:52.242Z,991.97
2018-03-06T00:13:52.139Z,992.01
2018-03-06T00:14:52.024Z,991.98
2018-03-06T00:15:51.921Z,991.96
2018-03-06T00:16:51.821Z,991.97
2018-03-06T00:17:51.700Z,992.00
2018-03-06T00:18:51.596Z,991.94
2018-03-06T00:19:51.745Z,991.92
2018-03-06T00:20:51.379Z,991.94
2018-03-06T00:21:51.275Z,991.91
2018-03-06T00:22:51.172Z,991.92
2018-03-06T00:23:51.071Z,991.87
2018-03-06T00:24:50.951Z,991.85
2018-03-06T00:25:50.848Z,991.85
2018-03-06T00:26:50.746Z,991.85
2018-03-06T00:27:50.643Z,991.87
2018-03-06T00:28:50.528Z,991.84
2018-03-06T00:29:50.424Z,991.82
2018-03-06T00:30:50.320Z,991.85
2018-03-06T00:31:50.216Z,991.85
2018-03-06T00:32:50.102Z,991.84
2018-03-06T00:33:49.997Z,991.82
2018-03-06T00:34:49.883Z,991.75
2018-03-06T00:35:49.778Z,991.77
2018-03-06T00:36:49.675Z,991.73
2018-03-06T00:37:49.560Z,991.71
2018-03-06T00:38:49.456Z,991.73
2018-03-06T00:39:49.352Z,991.67
2018-03-06T00:40:49.249Z,991.69
2018-03-06T00:41:49.133Z,991.69
2018-03-06T00:42:49.030Z,991.67
2018-03-06T00:43:48.927Z,991.65
2018-03-06T00:44:48.814Z,991.62
2018-03-06T00:45:48.708Z,991.62
2018-03-06T00:46:48.604Z,991.60
2018-03-06T00:47:48.489Z,991.60
2018-03-06T00:48:48.386Z,991.57
2018-03-06T00:49:48.281Z,991.58
2018-03-06T00:50:48.168Z,991.56
2018-03-06T00:51:48.062Z,991.56
2018-03-06T00:52:47.959Z,991.55
2018-03-06T00:53:47.857Z,991.51
2018-03-06T00:54:47.740Z,991.51
2018-03-06T00:55:47.637Z,991.51
2018-03-06T00:56:47.536Z,991.48
2018-03-06T00:57:47.418Z,991.47
2018-03-06T00:58:47.315Z,991.45
2018-03-06T00:59:47.212Z,991.42
2018-03-06T01:00:47.107Z,991.43
2018-03-06T01:01:46.993Z,991.42
2018-03-06T01:02:46.893Z,991.39
2018-03-06T01:03:46.773Z,991.40
2018-03-06T01:04:46.919Z,991.38
2018-03-06T01:05:46.566Z,991.36
2018-03-06T01:06:46.462Z,991.38
2018-03-06T01:07:46.347Z,991.44
2018-03-06T01:08:46.243Z,991.39
2018-03-06T01:09:46.141Z,991.40
2018-03-06T01:10:46.026Z,991.37
2018-03-06T01:11:45.920Z,991.38
2018-03-06T01:12:45.819Z,991.36
2018-03-06T01:13:45.702Z,991.39
2018-03-06T01:14:45.600Z,991.36
2018-03-06T01:15:45.496Z,991.41
2018-03-06T01:16:45.379Z,991.44
2018-03-06T01:17:45.276Z,991.41
2018-03-06T01:18:45.173Z,991.39
2018-03-06T01:19:45.058Z,991.37
2018-03-06T01:20:44.954Z,991.41
2018-03-06T01:21:44.851Z,991.36
2018-03-06T01:22:44.736Z,991.33
2018-03-06T01:23:44.631Z,991.38
2018-03-06T01:24:44.778Z,991.35
2018-03-06T01:25:44.412Z,991.37
2018-03-06T01:26:44.309Z,991.31
2018-03-06T01:27:44.206Z,991.35
2018-03-06T01:28:44.089Z,991.30
2018-03-06T01:29:43.987Z,991.32
2018-03-06T01:30:43.896Z,991.30
2018-03-06T01:31:43.767Z,991.31
2018-03-06T01:32:43.665Z,991.29
2018-03-06T01:33:43.564Z,991.30
2018-03-06T01:34:43.445Z,991.30
2018-03-06T01:35:43.343Z,991.25
2018-03-06T01:36:43.239Z,991.24
2018-03-06T01:37:43.123Z,991.27
2018-03-06T01:38:43.022Z,991.28
2018-03-06T01:39:42.916Z,991.23
2018-03-06T01:40:42.800Z,991.21
2018-03-06T01:41:42.696Z,991.22
2018-03-06T01:42:42.593Z,991.19
2018-03-06T01:43:42.490Z,991.18
2018-03-06T01:44:42.375Z,991.15
2018-03-06T01:45:42.270Z,991.17
2018-03-06T01:46:42.156Z,991.15
2018-03-06T01:47:42.052Z,991.15
2018-03-06T01:48:41.949Z,991.13
2018-03-06T01:49:41.834Z,991.14
2018-03-06T01:50:41.729Z,991.15
2018-03-06T01:51:41.627Z,991.08
2018-03-06T01:52:41.511Z,991.11
2018-03-06T01:53:41.406Z,991.12
2018-03-06T01:54:41.303Z,991.14
2018-03-06T01:55:41.188Z,991.09
2018-03-06T01:56:41.085Z,991.08
2018-03-06T01:57:40.980Z,991.08
2018-03-06T01:58:40.866Z,991.09
2018-03-06T01:59:40.761Z,991.11
2018-03-06T02:00:40.659Z,991.06
2018-03-06T02:01:40.543Z,991.06
2018-03-06T02:02:40.440Z,991.02
2018-03-06T02:03:40.337Z,991.08
2018-03-06T02:04:40.220Z,991.04
2018-03-06T02:05:40.130Z,991.04
2018-03-06T02:06:40.013Z,991.03
2018-03-06T02:07:39.898Z,991.01
2018-03-06T02:08:39.795Z,991.01
2018-03-06T02:09:39.692Z,990.98
2018-03-06T02:10:39.588Z,991.01
2018-03-06T02:11:39.471Z,990.99
2018-03-06T02:12:39.357Z,990.93
2018-03-06T02:13:39.253Z,991.00
2018-03-06T02:14:39.222Z,990.97
2018-03-06T02:15:39.036Z,990.95
2018-03-06T02:16:38.931Z,990.96
2018-03-06T02:17:38.827Z,990.94
2018-03-06T02:18:38.714Z,990.94
2018-03-06T02:19:38.614Z,990.94
2018-03-06T02:20:38.505Z,990.95
2018-03-06T02:21:38.388Z,990.92
2018-03-06T02:22:38.289Z,990.89
2018-03-06T02:23:38.183Z,990.87
2018-03-06T02:24:38.067Z,990.88
2018-03-06T02:25:37.962Z,990.85
2018-03-06T02:26:37.861Z,990.85
2018-03-06T02:27:37.746Z,990.84
2018-03-06T02:28:37.640Z,990.83
2018-03-06T02:29:37.786Z,990.81
2018-03-06T02:30:37.422Z,990.82
2018-03-06T02:31:37.318Z,990.85
2018-03-06T02:32:37.215Z,990.77
2018-03-06T02:33:37.099Z,990.79
2018-03-06T02:34:36.995Z,990.81
2018-03-06T02:35:36.892Z,990.81
2018-03-06T02:36:36.777Z,990.81
2018-03-06T02:37:36.673Z,990.74
2018-03-06T02:38:36.559Z,990.78
2018-03-06T02:39:36.454Z,990.75
2018-03-06T02:40:36.351Z,990.75
2018-03-06T02:41:36.235Z,990.68
2018-03-06T02:42:36.131Z,990.70
2018-03-06T02:43:36.030Z,990.67
2018-03-06T02:44:35.912Z,990.65
2018-03-06T02:45:35.810Z,990.66
2018-03-06T02:46:35.705Z,990.68
2018-03-06T02:47:35.590Z,990.66
2018-03-06T02:48:35.488Z,990.68
2018-03-06T02:49:35.385Z,990.63
2018-03-06T02:50:35.267Z,990.59
2018-03-06T02:51:35.164Z,990.65
2018-03-06T02:52:35.050Z,990.64
2018-03-06T02:53:34.947Z,990.62
2018-03-06T02:54:34.845Z,990.64
2018-03-06T02:55:34.728Z,990.64
2018-03-06T02:56:34.625Z,990.69
2018-03-06T02:57:34.520Z,990.67
2018-03-06T02:58:34.404Z,990.68
2018-03-06T02:59:34.306Z,990.70
2018-03-06T03:00:34.198Z,990.72
2018-03-06T03:01:34.080Z,990.69
2018-03-06T03:02:33.978Z,990.66
2018-03-06T03:03:33.874Z,990.67
2018-03-06T03:04:33.759Z,990.64
2018-03-06T03:05:33.656Z,990.67
2018-03-06T03:06:33.552Z,990.65
2018-03-06T03:07:33.435Z,990.64
2018-03-06T03:08:33.334Z,990.63
2018-03-06T03:09:33.219Z,990.60
2018-03-06T03:10:33.115Z,990.57
2018-03-06T03:11:33.011Z,990.57
2018-03-06T03:12:32.894Z,990.55
2018-03-06T03:13:32.791Z,990.56
2018-03-06T03:14:32.688Z,990.57
2018-03-06T03:15:32.574Z,990.55
2018-03-06T03:16:32.469Z,990.61
2018-03-06T03:17:32.365Z,990.60
2018-03-06T03:18:32.250Z,990.55
2018-03-06T03:19:32.147Z,990.56
2018-03-06T03:20:32.044Z,990.58
2018-03-06T03:21:31.928Z,990.57
2018-03-06T03:22:31.825Z,990.58
2018-03-06T03:23:31.710Z,990.57
2018-03-06T03:24:31.908Z,990.58
2018-03-06T03:25:31.501Z,990.58
2018-03-06T03:26:31.386Z,990.57
2018-03-06T03:27:31.283Z,990.55
2018-03-06T03:28:31.181Z,990.54
2018-03-06T03:29:31.063Z,990.57
2018-03-06T03:30:30.960Z,990.57
2018-03-06T03:31:30.870Z,990.56
2018-03-06T03:32:30.741Z,990.55
2018-03-06T03:33:30.639Z,990.54
2018-03-06T03:34:30.524Z,990.53
2018-03-06T03:35:30.419Z,990.53
2018-03-06T03:36:30.315Z,990.51
2018-03-06T03:37:30.199Z,990.50
2018-03-06T03:38:30.096Z,990.47
2018-03-06T03:39:29.998Z,990.47
2018-03-06T03:40:29.876Z,990.52
2018-03-06T03:41:29.775Z,990.44
2018-03-06T03:42:29.671Z,990.38
2018-03-06T03:43:29.556Z,990.39
2018-03-06T03:44:29.451Z,990.39
2018-03-06T03:45:29.336Z,990.39
2018-03-06T03:46:29.231Z,990.38
2018-03-06T03:47:29.129Z,990.38
2018-03-06T03:48:29.014Z,990.40
2018-03-06T03:49:28.909Z,990.35
2018-03-06T03:50:28.806Z,990.34
2018-03-06T03:51:28.690Z,990.36
2018-03-06T03:52:28.587Z,990.33
2018-03-06T03:53:28.473Z,990.34
2018-03-06T03:54:28.370Z,990.30
2018-03-06T03:55:28.264Z,990.28
2018-03-06T03:56:28.151Z,990.26
2018-03-06T03:57:28.058Z,990.24
2018-03-06T03:58:27.942Z,990.26
2018-03-06T03:59:27.832Z,990.21
2018-03-06T04:00:27.723Z,990.24
2018-03-06T04:01:27.618Z,990.25
2018-03-06T04:02:27.504Z,990.20
2018-03-06T04:03:27.402Z,990.21
2018-03-06T04:04:27.288Z,990.21
2018-03-06T04:05:27.188Z,990.18
2018-03-06T04:06:27.078Z,990.16
2018-03-06T04:07:26.962Z,990.18
2018-03-06T04:08:26.862Z,990.20
2018-03-06T04:09:26.756Z,990.19
2018-03-06T04:10:26.640Z,990.21
2018-03-06T04:11:26.547Z,990.20
2018-03-06T04:12:26.421Z,990.25
2018-03-06T04:13:26.317Z,990.22
2018-03-06T04:14:26.213Z,990.22
2018-03-06T04:15:26.098Z,990.22
2018-03-06T04:16:25.997Z,990.24
2018-03-06T04:17:25.892Z,990.23
2018-03-06T04:18:25.777Z,990.24
2018-03-06T04:19:25.672Z,990.24
2018-03-06T04:20:25.557Z,990.26
2018-03-06T04:21:25.455Z,990.25
2018-03-06T04:22:25.350Z,990.22
2018-03-06T04:23:25.233Z,990.20
2018-03-06T04:24:25.130Z,990.17
2018-03-06T04:25:25.027Z,990.23
2018-03-06T04:26:24.912Z,990.26
2018-03-06T04:27:24.809Z,990.21
2018-03-06T04:28:24.693Z,990.18
2018-03-06T04:29:24.905Z,990.25
2018-03-06T04:30:24.488Z,990.23
2018-03-06T04:31:24.369Z,990.28
2018-03-06T04:32:24.268Z,990.25
2018-03-06T04:33:24.163Z,990.24
2018-03-06T04:34:24.048Z,990.24
2018-03-06T04:35:23.945Z,990.22
2018-03-06T04:36:23.828Z,990.22
2018-03-06T04:37:23.726Z,990.21
2018-03-06T04:38:23.622Z,990.17
2018-03-06T04:39:23.506Z,990.19
2018-03-06T04:40:23.403Z,990.13
2018-03-06T04:41:23.299Z,990.13
2018-03-06T04:42:23.184Z,990.11
2018-03-06T04:43:23.081Z,990.08
2018-03-06T04:44:22.978Z,990.09
2018-03-06T04:45:22.861Z,990.08
2018-03-06T04:46:22.758Z,990.06
2018-03-06T04:47:22.642Z,990.07
2018-03-06T04:48:22.539Z,990.06
2018-03-06T04:49:22.437Z,990.08
2018-03-06T04:50:22.319Z,990.08
2018-03-06T04:51:22.215Z,990.06
2018-03-06T04:52:22.100Z,990.10
2018-03-06T04:53:22.044Z,990.08
2018-03-06T04:54:21.894Z,990.10
2018-03-06T04:55:21.784Z,990.06
2018-03-06T04:56:21.678Z,990.05
2018-03-06T04:57:21.571Z,990.02
2018-03-06T04:58:21.456Z,990.01
2018-03-06T04:59:21.353Z,990.05
2018-03-06T05:00:21.236Z,990.00
2018-03-06T05:01:21.134Z,989.99
2018-03-06T05:02:21.051Z,989.99
2018-03-06T05:03:20.914Z,990.00
2018-03-06T05:04:20.810Z,990.01
2018-03-06T05:05:20.697Z,990.03
2018-03-06T05:06:20.591Z,990.03
2018-03-06T05:07:20.488Z,990.03
2018-03-06T05:08:20.376Z,989.99
2018-03-06T05:09:20.269Z,990.00
2018-03-06T05:10:20.168Z,990.00
2018-03-06T05:11:20.051Z,989.99
2018-03-06T05:12:19.947Z,989.98
2018-03-06T05:13:19.843Z,989.98
2018-03-06T05:14:19.729Z,989.97
2018-03-06T05:15:19.627Z,989.95
2018-03-06T05:16:19.508Z,989.92
2018-03-06T05:17:19.405Z,989.88
2018-03-06T05:18:19.301Z,989.91
2018-03-06T05:19:19.188Z,989.88
2018-03-06T05:20:19.083Z,989.91
2018-03-06T05:21:18.967Z,989.88
2018-03-06T05:22:18.864Z,989.91
2018-03-06T05:23:18.759Z,989.92
2018-03-06T05:24:18.647Z,989.91
2018-03-06T05:25:18.542Z,989.93
2018-03-06T05:26:18.439Z,989.91
2018-03-06T05:27:18.321Z,989.91
2018-03-06T05:28:18.218Z,989.91
2018-03-06T05:29:18.107Z,989.90
2018-03-06T05:30:18.000Z,989.89
2018-03-06T05:31:17.896Z,989.87
2018-03-06T05:32:17.781Z,989.89
2018-03-06T05:33:17.676Z,989.86
2018-03-06T05:34:17.573Z,989.87
2018-03-06T05:35:17.457Z,989.89
2018-03-06T05:36:17.355Z,989.88
2018-03-06T05:37:17.239Z,989.85
2018-03-06T05:38:17.136Z,989.86
2018-03-06T05:39:17.032Z,989.88
2018-03-06T05:40:16.917Z,989.84
2018-03-06T05:41:16.819Z,989.84
2018-03-06T05:42:16.698Z,989.82
2018-03-06T05:43:16.594Z,989.87
2018-03-06T05:44:16.790Z,989.85
2018-03-06T05:45:16.375Z,989.89
2018-03-06T05:46:16.270Z,989.86
2018-03-06T05:47:16.168Z,989.85
2018-03-06T05:48:16.064Z,989.88
2018-03-06T05:49:15.948Z,989.87
2018-03-06T05:50:15.834Z,989.87
2018-03-06T05:51:15.730Z,989.89
2018-03-06T05:52:15.627Z,989.88
2018-03-06T05:53:15.511Z,989.89
2018-03-06T05:54:15.407Z,989.82
2018-03-06T05:55:15.303Z,989.87
2018-03-06T05:56:15.188Z,989.87
2018-03-06T05:57:15.085Z,989.83
2018-03-06T05:58:14.968Z,989.84
2018-03-06T05:59:14.865Z,989.85
2018-03-06T06:00:14.775Z,989.90
2018-03-06T06:01:14.648Z,989.89
2018-03-06T06:02:14.544Z,989.89
2018-03-06T06:03:14.440Z,989.88
2018-03-06T06:04:14.324Z,989.89
2018-03-06T06:05:14.221Z,989.85
2018-03-06T06:06:14.105Z,989.88
2018-03-06T06:07:14.000Z,989.92
2018-03-06T06:08:13.899Z,989.90
2018-03-06T06:09:13.781Z,989.88
2018-03-06T06:10:13.682Z,989.91
2018-03-06T06:11:13.575Z,989.92
2018-03-06T06:12:13.461Z,989.95
2018-03-06T06:13:13.357Z,989.96
2018-03-06T06:14:13.254Z,989.95
2018-03-06T06:15:13.137Z,989.94
2018-03-06T06:16:13.033Z,989.97
2018-03-06T06:17:12.918Z,989.95
2018-03-06T06:18:12.814Z,989.97
2018-03-06T06:19:12.750Z,989.97
2018-03-06T06:20:12.597Z,989.98
2018-03-06T06:21:12.493Z,989.95
2018-03-06T06:22:12.389Z,990.02
2018-03-06T06:23:12.274Z,989.94
2018-03-06T06:24:12.170Z,989.96
2018-03-06T06:25:12.056Z,989.94
2018-03-06T06:26:11.952Z,989.97
2018-03-06T06:27:11.848Z,989.98
2018-03-06T06:28:11.732Z,989.97
2018-03-06T06:29:11.629Z,989.99
2018-03-06T06:30:11.528Z,990.01
2018-03-06T06:31:11.410Z,989.97
2018-03-06T06:32:11.306Z,990.03
2018-03-06T06:33:11.205Z,990.00
2018-03-06T06:34:11.088Z,989.98
2018-03-06T06:35:10.984Z,989.99
2018-03-06T06:36:10.880Z,989.95
2018-03-06T06:37:10.765Z,990.01
2018-03-06T06:38:10.661Z,989.98
2018-03-06T06:39:10.811Z,990.05
2018-03-06T06:40:10.442Z,990.07
2018-03-06T06:41:10.339Z,990.00
2018-03-06T06:42:10.235Z,989.98
2018-03-06T06:43:10.119Z,990.05
2018-03-06T06:44:10.017Z,990.01
2018-03-06T06:45:09.913Z,990.05
2018-03-06T06:46:09.797Z,990.01
2018-03-06T06:47:09.694Z,989.96
2018-03-06T06:48:09.592Z,990.01
2018-03-06T06:49:09.474Z,989.99
2018-03-06T06:50:09.373Z,990.01
2018-03-06T06:51:09.269Z,990.00
2018-03-06T06:52:09.152Z,990.00
2018-03-06T06:53:09.049Z,990.01
2018-03-06T06:54:08.945Z,990.03
2018-03-06T06:55:08.842Z,989.96
2018-03-06T06:56:08.725Z,990.03
2018-03-06T06:57:08.623Z,989.99
2018-03-06T06:58:08.519Z,989.97
2018-03-06T06:59:08.405Z,990.01
2018-03-06T07:00:08.306Z,990.00
2018-03-06T07:01:08.202Z,989.98
2018-03-06T07:02:08.081Z,989.95
2018-03-06T07:03:07.978Z,989.93
2018-03-06T07:04:08.125Z,989.95
2018-03-06T07:05:07.760Z,989.94
2018-03-06T07:06:07.656Z,989.96
2018-03-06T07:07:07.553Z,989.94
2018-03-06T07:08:07.437Z,989.91
2018-03-06T07:09:07.335Z,989.97
2018-03-06T07:10:07.229Z,989.93
2018-03-06T07:11:07.127Z,989.93
2018-03-06T07:12:07.010Z,989.90
2018-03-06T07:13:06.907Z,989.92
2018-03-06T07:14:06.805Z,989.94
2018-03-06T07:15:06.701Z,989.94
2018-03-06T07:16:06.588Z,989.95
2018-03-06T07:17:06.482Z,989.92
2018-03-06T07:18:06.377Z,989.93
2018-03-06T07:19:06.264Z,989.97
2018-03-06T07:20:06.160Z,989.98
2018-03-06T07:21:06.056Z,989.94
2018-03-06T07:22:05.952Z,990.01
2018-03-06T07:23:05.837Z,989.96
2018-03-06T07:24:05.984Z,990.00
2018-03-06T07:25:05.630Z,990.01
2018-03-06T07:26:05.538Z,990.05
2018-03-06T07:27:05.411Z,990.06
2018-03-06T07:28:05.308Z,990.03
2018-03-06T07:29:05.206Z,990.04
2018-03-06T07:30:05.092Z,990.05
2018-03-06T07:31:04.997Z,990.10
2018-03-06T07:32:04.882Z,990.07
2018-03-06T07:33:04.779Z,990.09
2018-03-06T07:34:04.674Z,990.12
2018-03-06T07:35:04.560Z,990.14
2018-03-06T07:36:04.456Z,990.11
2018-03-06T07:37:04.363Z,990.10
2018-03-06T07:38:04.279Z,990.10
2018-03-06T07:39:04.135Z,990.13
2018-03-06T07:40:04.028Z,990.11
2018-03-06T07:41:03.927Z,990.12
2018-03-06T07:42:03.827Z,990.09
2018-03-06T07:43:03.720Z,990.09
2018-03-06T07:44:03.606Z,990.12
2018-03-06T07:45:03.507Z,990.09
2018-03-06T07:46:03.398Z,990.09
2018-03-06T07:47:03.295Z,990.10
2018-03-06T07:48:03.181Z,990.11
2018-03-06T07:49:03.075Z,990.09
2018-03-06T07:50:02.974Z,990.08
2018-03-06T07:51:02.868Z,990.08
2018-03-06T07:52:02.766Z,990.08
2018-03-06T07:53:02.651Z,990.09
2018-03-06T07:54:02.548Z,990.10
2018-03-06T07:55:02.447Z,990.03
2018-03-06T07:56:02.340Z,990.04
2018-03-06T07:57:02.236Z,990.03
2018-03-06T07:58:02.133Z,990.05
2018-03-06T07:59:02.017Z,990.08
2018-03-06T08:00:01.916Z,990.06
2018-03-06T08:01:01.814Z,990.05
2018-03-06T08:02:01.712Z,990.06
2018-03-06T08:03:01.605Z,990.04
2018-03-06T08:04:01.491Z,990.06
2018-03-06T08:05:01.385Z,990.04
2018-03-06T08:06:01.282Z,990.03
2018-03-06T08:07:01.178Z,990.04
2018-03-06T08:08:01.076Z,990.03
2018-03-06T08:09:00.959Z,990.01
2018-03-06T08:10:00.855Z,989.96
2018-03-06T08:11:00.753Z,989.99
2018-03-06T08:12:00.677Z,989.98
2018-03-06T08:13:00.546Z,990.02
2018-03-06T08:14:00.442Z,989.99
2018-03-06T08:15:00.326Z,990.00
2018-03-06T08:16:00.224Z,990.01
2018-03-06T08:17:00.121Z,989.92
2018-03-06T08:18:00.017Z,989.97
2018-03-06T08:18:59.914Z,989.99
2018-03-06T08:19:59.796Z,990.01
2018-03-06T08:20:59.694Z,990.03
2018-03-06T08:21:59.591Z,990.04
2018-03-06T08:22:59.490Z,989.97
2018-03-06T08:23:59.383Z,989.98
2018-03-06T08:24:59.276Z,990.00
2018-03-06T08:25:59.169Z,990.00
2018-03-06T08:26:59.062Z,989.98
2018-03-06T08:27:58.959Z,989.94
2018-03-06T08:28:58.855Z,990.00
2018-03-06T08:29:58.752Z,989.99
2018-03-06T08:30:58.638Z,990.05
2018-03-06T08:31:58.534Z,990.02
2018-03-06T08:32:58.432Z,990.03
2018-03-06T08:33:58.325Z,990.03
2018-03-06T08:34:58.222Z,990.00
2018-03-06T08:35:58.120Z,990.04
2018-03-06T08:36:58.015Z,990.07
2018-03-06T08:37:57.902Z,990.02
2018-03-06T08:38:57.798Z,990.06
2018-03-06T08:39:57.695Z,990.06
2018-03-06T08:40:57.591Z,990.04
2018-03-06T08:41:57.488Z,990.06
2018-03-06T08:42:57.384Z,990.06
2018-03-06T08:43:57.281Z,990.09
2018-03-06T08:44:57.177Z,990.11
2018-03-06T08:45:57.074Z,990.11
2018-03-06T08:46:56.959Z,990.08
2018-03-06T08:47:56.854Z,990.10
2018-03-06T08:48:56.754Z,990.11
2018-03-06T08:49:56.647Z,990.10
2018-03-06T08:50:56.545Z,990.08
2018-03-06T08:51:56.441Z,990.09
2018-03-06T08:52:56.362Z,990.07
2018-03-06T08:53:56.234Z,990.09
2018-03-06T08:54:56.131Z,990.09
2018-03-06T08:55:56.028Z,990.04
2018-03-06T08:56:55.924Z,990.03
2018-03-06T08:57:55.822Z,990.06
2018-03-06T08:58:55.967Z,990.09
2018-03-06T08:59:55.603Z,990.04
2018-03-06T09:00:55.499Z,990.04
2018-03-06T09:01:55.396Z,990.06
2018-03-06T09:02:55.292Z,990.06
2018-03-06T09:03:55.190Z,990.05
2018-03-06T09:04:55.086Z,990.00
2018-03-06T09:05:54.984Z,989.97
2018-03-06T09:06:54.878Z,990.00
2018-03-06T09:07:54.780Z,989.97
2018-03-06T09:08:54.675Z,989.98
2018-03-06T09:09:54.568Z,989.98
2018-03-06T09:10:54.466Z,989.99
2018-03-06T09:11:54.362Z,989.98
2018-03-06T09:12:54.260Z,989.94
2018-03-06T09:13:54.156Z,989.92
2018-03-06T09:14:54.053Z,989.93
2018-03-06T09:15:53.951Z,989.89
2018-03-06T09:16:53.846Z,989.89
2018-03-06T09:17:53.744Z,989.90
2018-03-06T09:18:53.891Z,989.93
2018-03-06T09:19:53.547Z,990.01
2018-03-06T09:20:53.433Z,989.95
2018-03-06T09:21:53.330Z,989.94
2018-03-06T09:22:53.227Z,989.94
2018-03-06T09:23:53.123Z,989.93
2018-03-06T09:24:53.021Z,989.89
2018-03-06T09:25:52.916Z,989.88
2018-03-06T09:26:52.826Z,989.88
2018-03-06T09:27:52.722Z,989.89
2018-03-06T09:28:52.619Z,989.87
2018-03-06T09:29:52.516Z,989.83
2018-03-06T09:30:52.412Z,989.87
2018-03-06T09:31:52.309Z,989.88
2018-03-06T09:32:52.207Z,989.85
2018-03-06T09:33:52.101Z,989.84
2018-03-06T09:34:51.998Z,989.89
2018-03-06T09:35:51.896Z,989.89
2018-03-06T09:36:51.806Z,989.86
2018-03-06T09:37:51.690Z,989.87
2018-03-06T09:38:51.585Z,989.86
2018-03-06T09:39:51.483Z,989.80
2018-03-06T09:40:51.380Z,989.84
2018-03-06T09:41:51.288Z,989.84
2018-03-06T09:42:51.185Z,989.75
2018-03-06T09:43:51.082Z,989.76
2018-03-06T09:44:50.978Z,989.80
2018-03-06T09:45:50.874Z,989.82
2018-03-06T09:46:50.771Z,989.81
2018-03-06T09:47:50.669Z,989.84
2018-03-06T09:48:50.564Z,989.76
2018-03-06T09:49:50.462Z,989.81
2018-03-06T09:50:50.384Z,989.81
2018-03-06T09:51:50.266Z,989.81
2018-03-06T09:52:50.163Z,989.81
2018-03-06T09:53:50.061Z,989.79
2018-03-06T09:54:49.958Z,989.77
2018-03-06T09:55:49.853Z,989.80
2018-03-06T09:56:49.750Z,989.77
2018-03-06T09:57:49.646Z,989.76
2018-03-06T09:58:49.846Z,989.76
2018-03-06T09:59:49.441Z,989.74
2018-03-06T10:00:49.351Z,989.71
2018-03-06T10:01:49.247Z,989.74
2018-03-06T10:02:49.144Z,989.79
2018-03-06T10:03:49.040Z,989.76
2018-03-06T10:04:48.936Z,989.75
2018-03-06T10:05:48.835Z,989.77
2018-03-06T10:06:48.729Z,989.77
2018-03-06T10:07:48.627Z,989.79
2018-03-06T10:08:48.535Z,989.78
2018-03-06T10:09:48.431Z,989.76
2018-03-06T10:10:48.329Z,989.78
2018-03-06T10:11:48.224Z,989.75
2018-03-06T10:12:48.122Z,989.77
2018-03-06T10:13:48.018Z,989.76
2018-03-06T10:14:47.915Z,989.74
2018-03-06T10:15:47.826Z,989.71
2018-03-06T10:16:47.720Z,989.73
2018-03-06T10:17:47.618Z,989.74
2018-03-06T10:18:47.515Z,989.67
2018-03-06T10:19:47.461Z,989.69
2018-03-06T10:20:47.308Z,989.69
2018-03-06T10:21:47.216Z,989.74
2018-03-06T10:22:47.114Z,989.70
2018-03-06T10:23:47.018Z,989.66
2018-03-06T10:24:46.908Z,989.67
2018-03-06T10:25:46.804Z,989.63
2018-03-06T10:26:46.714Z,989.63
2018-03-06T10:27:46.600Z,989.65
2018-03-06T10:28:46.507Z,989.63
2018-03-06T10:29:46.403Z,989.62
2018-03-06T10:30:46.301Z,989.57
2018-03-06T10:31:46.198Z,989.57
2018-03-06T10:32:46.105Z,989.61
2018-03-06T10:33:46.003Z,989.58
2018-03-06T10:34:45.901Z,989.48
2018-03-06T10:35:45.808Z,989.54
2018-03-06T10:36:45.693Z,989.54
2018-03-06T10:37:45.602Z,989.55
2018-03-06T10:38:45.499Z,989.48
2018-03-06T10:39:45.397Z,989.50
2018-03-06T10:40:45.292Z,989.53
2018-03-06T10:41:45.189Z,989.52
2018-03-06T10:42:45.098Z,989.50
2018-03-06T10:43:44.996Z,989.52
2018-03-06T10:44:44.904Z,989.52
2018-03-06T10:45:44.788Z,989.51
2018-03-06T10:46:44.697Z,989.48
2018-03-06T10:47:44.594Z,989.47
2018-03-06T10:48:44.490Z,989.48
2018-03-06T10:49:44.387Z,989.43
2018-03-06T10:50:44.297Z,989.43
2018-03-06T10:51:44.228Z,989.47
2018-03-06T10:52:44.090Z,989.45
2018-03-06T10:53:43.999Z,989.41
2018-03-06T10:54:43.887Z,989.42
2018-03-06T10:55:43.792Z,989.41
2018-03-06T10:56:43.689Z,989.38
2018-03-06T10:57:43.597Z,989.38
2018-03-06T10:58:43.494Z,989.33
2018-03-06T10:59:43.392Z,989.36
2018-03-06T11:00:43.288Z,989.24
2018-03-06T11:01:43.186Z,989.27
2018-03-06T11:02:43.095Z,989.25
2018-03-06T11:03:42.991Z,989.21
2018-03-06T11:04:42.887Z,989.25
2018-03-06T11:05:42.785Z,989.30
2018-03-06T11:06:42.693Z,989.25
2018-03-06T11:07:42.591Z,989.22
2018-03-06T11:08:42.501Z,989.20
2018-03-06T11:09:42.384Z,989.21
2018-03-06T11:10:42.292Z,989.25
2018-03-06T11:11:42.189Z,989.25
2018-03-06T11:12:42.087Z,989.26
2018-03-06T11:13:41.994Z,989.28
2018-03-06T11:14:41.892Z,989.27
2018-03-06T11:15:41.789Z,989.18
2018-03-06T11:16:41.686Z,989.17
2018-03-06T11:17:41.596Z,989.13
2018-03-06T11:18:41.492Z,989.16
2018-03-06T11:19:41.388Z,989.11
2018-03-06T11:20:41.285Z,989.13
2018-03-06T11:21:41.194Z,989.10
2018-03-06T11:22:41.090Z,989.10
2018-03-06T11:23:40.986Z,989.05
2018-03-06T11:24:40.916Z,989.05
2018-03-06T11:25:40.798Z,989.02
2018-03-06T11:26:40.691Z,989.03
2018-03-06T11:27:40.587Z,989.02
2018-03-06T11:28:40.496Z,989.03
2018-03-06T11:29:40.391Z,989.03
2018-03-06T11:30:40.290Z,988.94
2018-03-06T11:31:40.203Z,988.94
2018-03-06T11:32:40.095Z,988.98
2018-03-06T11:33:39.992Z,988.94
2018-03-06T11:34:39.884Z,988.97
2018-03-06T11:35:39.792Z,988.98
2018-03-06T11:36:39.698Z,988.96
2018-03-06T11:37:39.590Z,988.93
2018-03-06T11:38:39.750Z,988.93
2018-03-06T11:39:39.398Z,988.93
2018-03-06T11:40:39.291Z,988.93
2018-03-06T11:41:39.203Z,988.92
2018-03-06T11:42:39.100Z,988.89
2018-03-06T11:43:38.992Z,988.89
2018-03-06T11:44:38.893Z,988.87
2018-03-06T11:45:38.796Z,988.87
2018-03-06T11:46:38.707Z,988.87
2018-03-06T11:47:38.597Z,988.80
2018-03-06T11:48:38.490Z,988.82
2018-03-06T11:49:38.404Z,988.78
2018-03-06T11:50:38.294Z,988.81
2018-03-06T11:51:38.191Z,988.81
2018-03-06T11:52:38.108Z,988.78
2018-03-06T11:53:37.994Z,988.77
2018-03-06T11:54:37.897Z,988.78
2018-03-06T11:55:37.794Z,988.78
2018-03-06T11:56:37.713Z,988.80
2018-03-06T11:57:37.598Z,988.81
2018-03-06T11:58:37.490Z,988.78
2018-03-06T11:59:37.403Z,988.77
2018-03-06T12:00:37.301Z,988.74
2018-03-06T12:01:37.196Z,988.71
2018-03-06T12:02:37.112Z,988.70
2018-03-06T12:03:37.005Z,988.68
2018-03-06T12:04:36.899Z,988.66
2018-03-06T12:05:36.804Z,988.65
2018-03-06T12:06:36.709Z,988.67
2018-03-06T12:07:36.599Z,988.67
2018-03-06T12:08:36.503Z,988.62
2018-03-06T12:09:36.421Z,988.60
2018-03-06T12:10:36.349Z,988.60
2018-03-06T12:11:36.205Z,988.64
2018-03-06T12:12:36.113Z,988.59
2018-03-06T12:13:36.007Z,988.65
2018-03-06T12:14:35.906Z,988.60
2018-03-06T12:15:35.803Z,988.58
2018-03-06T12:16:35.718Z,988.52
2018-03-06T12:17:35.606Z,988.54
2018-03-06T12:18:35.752Z,988.53
2018-03-06T12:19:35.415Z,988.52
2018-03-06T12:20:35.310Z,988.55
2018-03-06T12:21:35.205Z,988.51
2018-03-06T12:22:35.130Z,988.46
2018-03-06T12:23:35.014Z,988.45
2018-03-06T12:24:34.906Z,988.45
2018-03-06T12:25:34.812Z,988.40
2018-03-06T12:26:34.712Z,988.43
2018-03-06T12:27:34.607Z,988.42